sensor_id;sensor_type;location;lat;lon;timestamp;temperature;humidity
18777;DHT22;9517;51.174;4.160;2022-09-20T00:01:22;11.50;99.90
18777;DHT22;9517;51.174;4.160;2022-09-20T00:03:51;11.50;99.90
18777;DHT22;9517;51.174;4.160;2022-09-20T00:06:20;11.50;99.90
18777;DHT22;9517;51.174;4.160;2022-09-20T00:08:48;11.50;99.90
18777;DHT22;9517;51.174;4.160;2022-09-20T00:11:20;11.50;99.90
18777;DHT22;9517;51.174;4.160;2022-09-20T00:13:49;11.50;99.90
18777;DHT22;9517;51.174;4.160;2022-09-20T00:16:25;11.60;99.90
18777;DHT22;9517;51.174;4.160;2022-09-20T00:18:54;11.50;99.90
18777;DHT22;9517;51.174;4.160;2022-09-20T00:21:23;11.60;99.90
18777;DHT22;9517;51.174;4.160;2022-09-20T00:23:51;11.50;99.90
18777;DHT22;9517;51.174;4.160;2022-09-20T00:26:23;11.50;99.90
18777;DHT22;9517;51.174;4.160;2022-09-20T00:28:50;11.50;99.90
18777;DHT22;9517;51.174;4.160;2022-09-20T00:31:20;11.50;99.90
18777;DHT22;9517;51.174;4.160;2022-09-20T00:33:52;11.50;99.90
18777;DHT22;9517;51.174;4.160;2022-09-20T00:36:36;11.60;99.90
18777;DHT22;9517;51.174;4.160;2022-09-20T00:39:03;11.50;99.90
18777;DHT22;9517;51.174;4.160;2022-09-20T00:41:32;11.50;99.90
18777;DHT22;9517;51.174;4.160;2022-09-20T00:43:59;11.50;99.90
18777;DHT22;9517;51.174;4.160;2022-09-20T00:46:31;11.50;99.90
18777;DHT22;9517;51.174;4.160;2022-09-20T00:49:06;11.40;99.90
18777;DHT22;9517;51.174;4.160;2022-09-20T00:51:36;11.40;99.90
18777;DHT22;9517;51.174;4.160;2022-09-20T00:54:06;11.40;99.90
18777;DHT22;9517;51.174;4.160;2022-09-20T00:56:40;11.40;99.90
18777;DHT22;9517;51.174;4.160;2022-09-20T00:59:13;11.40;99.90
18777;DHT22;9517;51.174;4.160;2022-09-20T01:01:41;11.50;99.90
18777;DHT22;9517;51.174;4.160;2022-09-20T01:04:10;11.50;99.90
18777;DHT22;9517;51.174;4.160;2022-09-20T01:06:39;11.50;99.90
18777;DHT22;9517;51.174;4.160;2022-09-20T01:09:07;11.60;99.90
18777;DHT22;9517;51.174;4.160;2022-09-20T01:11:37;11.60;99.90
18777;DHT22;9517;51.174;4.160;2022-09-20T01:14:05;11.60;99.90
18777;DHT22;9517;51.174;4.160;2022-09-20T01:16:32;11.50;99.90
18777;DHT22;9517;51.174;4.160;2022-09-20T01:19:04;11.50;99.90
18777;DHT22;9517;51.174;4.160;2022-09-20T01:21:36;11.50;99.90
18777;DHT22;9517;51.174;4.160;2022-09-20T01:24:08;11.40;99.90
18777;DHT22;9517;51.174;4.160;2022-09-20T01:27:03;11.30;99.90
18777;DHT22;9517;51.174;4.160;2022-09-20T01:29:52;11.20;99.90
18777;DHT22;9517;51.174;4.160;2022-09-20T01:32:24;11.20;99.90
18777;DHT22;9517;51.174;4.160;2022-09-20T01:34:58;11.10;99.90
18777;DHT22;9517;51.174;4.160;2022-09-20T01:37:29;11.20;99.90
18777;DHT22;9517;51.174;4.160;2022-09-20T01:40:02;11.20;99.90
18777;DHT22;9517;51.174;4.160;2022-09-20T01:42:37;11.30;99.90
18777;DHT22;9517;51.174;4.160;2022-09-20T01:45:12;11.20;99.90
18777;DHT22;9517;51.174;4.160;2022-09-20T01:47:49;11.20;99.90
18777;DHT22;9517;51.174;4.160;2022-09-20T01:50:31;11.30;99.90
18777;DHT22;9517;51.174;4.160;2022-09-20T01:59:19;11.40;99.90
18777;DHT22;9517;51.174;4.160;2022-09-20T02:02:14;11.50;99.90
18777;DHT22;9517;51.174;4.160;2022-09-20T02:05:05;11.60;99.90
18777;DHT22;9517;51.174;4.160;2022-09-20T02:08:00;11.70;99.90
18777;DHT22;9517;51.174;4.160;2022-09-20T02:10:46;11.80;99.90
18777;DHT22;9517;51.174;4.160;2022-09-20T02:13:27;11.90;99.90
18777;DHT22;9517;51.174;4.160;2022-09-20T02:16:23;11.90;99.90
18777;DHT22;9517;51.174;4.160;2022-09-20T02:19:12;11.90;99.90
18777;DHT22;9517;51.174;4.160;2022-09-20T02:21:47;12.00;99.90
18777;DHT22;9517;51.174;4.160;2022-09-20T02:24:25;12.20;99.90
18777;DHT22;9517;51.174;4.160;2022-09-20T02:27:05;12.30;99.90
18777;DHT22;9517;51.174;4.160;2022-09-20T02:29:43;12.30;99.90
18777;DHT22;9517;51.174;4.160;2022-09-20T02:32:30;12.40;99.90
18777;DHT22;9517;51.174;4.160;2022-09-20T02:35:23;12.40;99.90
18777;DHT22;9517;51.174;4.160;2022-09-20T02:38:01;12.30;99.90
18777;DHT22;9517;51.174;4.160;2022-09-20T02:41:04;12.30;99.90
18777;DHT22;9517;51.174;4.160;2022-09-20T02:43:43;12.30;99.90
18777;DHT22;9517;51.174;4.160;2022-09-20T02:46:17;12.20;99.90
18777;DHT22;9517;51.174;4.160;2022-09-20T02:48:55;12.20;99.90
18777;DHT22;9517;51.174;4.160;2022-09-20T02:51:33;12.10;99.90
18777;DHT22;9517;51.174;4.160;2022-09-20T02:54:11;12.00;99.90
18777;DHT22;9517;51.174;4.160;2022-09-20T02:56:46;12.00;99.90
18777;DHT22;9517;51.174;4.160;2022-09-20T02:59:24;12.00;99.90
18777;DHT22;9517;51.174;4.160;2022-09-20T03:02:02;12.00;99.90
18777;DHT22;9517;51.174;4.160;2022-09-20T03:04:40;12.00;99.90
18777;DHT22;9517;51.174;4.160;2022-09-20T03:07:20;12.00;99.90
18777;DHT22;9517;51.174;4.160;2022-09-20T03:09:55;11.90;99.90
18777;DHT22;9517;51.174;4.160;2022-09-20T03:12:35;11.90;99.90
18777;DHT22;9517;51.174;4.160;2022-09-20T03:15:15;11.90;99.90
18777;DHT22;9517;51.174;4.160;2022-09-20T03:17:47;11.90;99.90
18777;DHT22;9517;51.174;4.160;2022-09-20T03:20:32;11.90;99.90
18777;DHT22;9517;51.174;4.160;2022-09-20T03:23:10;11.80;99.90
18777;DHT22;9517;51.174;4.160;2022-09-20T03:25:50;11.80;99.90
18777;DHT22;9517;51.174;4.160;2022-09-20T03:28:35;11.70;99.90
18777;DHT22;9517;51.174;4.160;2022-09-20T03:31:12;11.70;99.90
18777;DHT22;9517;51.174;4.160;2022-09-20T03:33:49;11.70;99.90
18777;DHT22;9517;51.174;4.160;2022-09-20T03:36:30;11.60;99.90
18777;DHT22;9517;51.174;4.160;2022-09-20T03:39:14;11.50;99.90
18777;DHT22;9517;51.174;4.160;2022-09-20T03:47:39;11.30;99.90
18777;DHT22;9517;51.174;4.160;2022-09-20T03:53:32;11.20;99.90
18777;DHT22;9517;51.174;4.160;2022-09-20T03:59:17;11.10;99.90
18777;DHT22;9517;51.174;4.160;2022-09-20T04:02:04;11.00;99.90
18777;DHT22;9517;51.174;4.160;2022-09-20T04:04:39;11.00;99.90
18777;DHT22;9517;51.174;4.160;2022-09-20T04:07:14;10.90;99.90
18777;DHT22;9517;51.174;4.160;2022-09-20T04:13:08;10.80;99.90
18777;DHT22;9517;51.174;4.160;2022-09-20T04:15:45;10.70;99.90
18777;DHT22;9517;51.174;4.160;2022-09-20T04:18:23;10.70;99.90
18777;DHT22;9517;51.174;4.160;2022-09-20T04:20:59;10.70;99.90
18777;DHT22;9517;51.174;4.160;2022-09-20T04:23:33;10.60;99.90
18777;DHT22;9517;51.174;4.160;2022-09-20T04:26:02;10.50;99.90
18777;DHT22;9517;51.174;4.160;2022-09-20T04:28:35;10.50;99.90
18777;DHT22;9517;51.174;4.160;2022-09-20T04:31:19;10.50;99.90
18777;DHT22;9517;51.174;4.160;2022-09-20T04:33:50;10.60;99.90
18777;DHT22;9517;51.174;4.160;2022-09-20T04:36:35;10.50;99.90
18777;DHT22;9517;51.174;4.160;2022-09-20T04:39:12;10.50;99.90
18777;DHT22;9517;51.174;4.160;2022-09-20T04:42:26;10.50;99.90
18777;DHT22;9517;51.174;4.160;2022-09-20T04:51:43;10.40;99.90
18777;DHT22;9517;51.174;4.160;2022-09-20T04:54:42;10.50;99.90
18777;DHT22;9517;51.174;4.160;2022-09-20T05:00:07;10.50;99.90
18777;DHT22;9517;51.174;4.160;2022-09-20T05:03:00;10.60;99.90
18777;DHT22;9517;51.174;4.160;2022-09-20T05:08:47;10.70;99.90
18777;DHT22;9517;51.174;4.160;2022-09-20T05:14:38;10.60;99.90
18777;DHT22;9517;51.174;4.160;2022-09-20T05:17:19;10.60;99.90
18777;DHT22;9517;51.174;4.160;2022-09-20T05:20:02;10.60;99.90
18777;DHT22;9517;51.174;4.160;2022-09-20T05:25:50;10.60;99.90
18777;DHT22;9517;51.174;4.160;2022-09-20T05:28:33;10.70;99.90
18777;DHT22;9517;51.174;4.160;2022-09-20T05:31:05;10.70;99.90
18777;DHT22;9517;51.174;4.160;2022-09-20T05:33:42;10.70;99.90
18777;DHT22;9517;51.174;4.160;2022-09-20T05:36:18;10.60;99.90
18777;DHT22;9517;51.174;4.160;2022-09-20T05:38:58;10.60;99.90
18777;DHT22;9517;51.174;4.160;2022-09-20T05:41:35;10.50;99.90
18777;DHT22;9517;51.174;4.160;2022-09-20T05:44:14;10.50;99.90
18777;DHT22;9517;51.174;4.160;2022-09-20T05:46:57;10.50;99.90
18777;DHT22;9517;51.174;4.160;2022-09-20T05:49:37;10.50;99.90
18777;DHT22;9517;51.174;4.160;2022-09-20T05:52:24;10.60;99.90
18777;DHT22;9517;51.174;4.160;2022-09-20T05:55:06;10.60;99.90
18777;DHT22;9517;51.174;4.160;2022-09-20T05:57:52;10.60;99.90
18777;DHT22;9517;51.174;4.160;2022-09-20T06:00:30;10.60;99.90
18777;DHT22;9517;51.174;4.160;2022-09-20T06:03:08;10.60;99.90
18777;DHT22;9517;51.174;4.160;2022-09-20T06:05:48;10.60;99.90
18777;DHT22;9517;51.174;4.160;2022-09-20T06:11:21;10.90;99.90
18777;DHT22;9517;51.174;4.160;2022-09-20T06:14:08;11.00;99.90
18777;DHT22;9517;51.174;4.160;2022-09-20T06:16:52;11.00;99.90
18777;DHT22;9517;51.174;4.160;2022-09-20T06:19:27;11.10;99.90
18777;DHT22;9517;51.174;4.160;2022-09-20T06:22:03;11.10;99.90
18777;DHT22;9517;51.174;4.160;2022-09-20T06:24:36;11.20;99.90
18777;DHT22;9517;51.174;4.160;2022-09-20T06:27:09;11.20;99.90
18777;DHT22;9517;51.174;4.160;2022-09-20T06:29:40;11.30;99.90
18777;DHT22;9517;51.174;4.160;2022-09-20T06:32:10;11.40;99.90
18777;DHT22;9517;51.174;4.160;2022-09-20T06:34:41;11.30;99.90
18777;DHT22;9517;51.174;4.160;2022-09-20T06:37:19;11.40;99.90
18777;DHT22;9517;51.174;4.160;2022-09-20T06:40:19;11.50;99.90
18777;DHT22;9517;51.174;4.160;2022-09-20T06:43:08;11.60;99.90
18777;DHT22;9517;51.174;4.160;2022-09-20T06:45:40;11.80;99.90
18777;DHT22;9517;51.174;4.160;2022-09-20T06:48:07;11.90;99.90
18777;DHT22;9517;51.174;4.160;2022-09-20T06:50:38;12.00;99.90
18777;DHT22;9517;51.174;4.160;2022-09-20T06:53:10;12.10;99.90
18777;DHT22;9517;51.174;4.160;2022-09-20T06:55:41;12.00;99.90
18777;DHT22;9517;51.174;4.160;2022-09-20T06:58:10;12.00;99.90
18777;DHT22;9517;51.174;4.160;2022-09-20T07:00:37;12.00;99.90
18777;DHT22;9517;51.174;4.160;2022-09-20T07:03:07;12.10;99.90
18777;DHT22;9517;51.174;4.160;2022-09-20T07:05:34;12.30;99.90
18777;DHT22;9517;51.174;4.160;2022-09-20T07:08:06;12.40;99.90
18777;DHT22;9517;51.174;4.160;2022-09-20T07:10:33;12.60;99.90
18777;DHT22;9517;51.174;4.160;2022-09-20T07:13:01;12.80;99.90
18777;DHT22;9517;51.174;4.160;2022-09-20T07:15:31;12.90;99.90
18777;DHT22;9517;51.174;4.160;2022-09-20T07:17:58;13.00;99.90
18777;DHT22;9517;51.174;4.160;2022-09-20T07:20:27;13.00;99.90
18777;DHT22;9517;51.174;4.160;2022-09-20T07:22:54;13.00;99.90
18777;DHT22;9517;51.174;4.160;2022-09-20T07:25:21;13.00;99.90
18777;DHT22;9517;51.174;4.160;2022-09-20T07:27:49;12.90;99.90
18777;DHT22;9517;51.174;4.160;2022-09-20T07:30:18;12.80;99.90
18777;DHT22;9517;51.174;4.160;2022-09-20T07:32:49;12.90;99.90
18777;DHT22;9517;51.174;4.160;2022-09-20T07:35:18;13.20;99.90
18777;DHT22;9517;51.174;4.160;2022-09-20T07:37:47;13.30;99.90
18777;DHT22;9517;51.174;4.160;2022-09-20T07:40:15;13.40;99.90
18777;DHT22;9517;51.174;4.160;2022-09-20T07:42:42;13.50;99.90
18777;DHT22;9517;51.174;4.160;2022-09-20T07:45:10;13.70;99.90
18777;DHT22;9517;51.174;4.160;2022-09-20T07:47:37;13.70;99.90
18777;DHT22;9517;51.174;4.160;2022-09-20T07:50:07;13.60;99.90
18777;DHT22;9517;51.174;4.160;2022-09-20T07:52:35;13.60;99.90
18777;DHT22;9517;51.174;4.160;2022-09-20T07:55:04;13.50;99.90
18777;DHT22;9517;51.174;4.160;2022-09-20T07:57:34;13.50;99.90
18777;DHT22;9517;51.174;4.160;2022-09-20T08:00:04;13.40;99.90
18777;DHT22;9517;51.174;4.160;2022-09-20T08:02:31;13.30;99.90
18777;DHT22;9517;51.174;4.160;2022-09-20T08:04:58;13.30;99.90
18777;DHT22;9517;51.174;4.160;2022-09-20T08:07:26;13.40;99.90
18777;DHT22;9517;51.174;4.160;2022-09-20T08:09:53;13.30;99.90
18777;DHT22;9517;51.174;4.160;2022-09-20T08:12:21;13.30;99.90
18777;DHT22;9517;51.174;4.160;2022-09-20T08:14:49;13.30;99.90
18777;DHT22;9517;51.174;4.160;2022-09-20T08:17:16;13.50;99.90
18777;DHT22;9517;51.174;4.160;2022-09-20T08:19:44;13.70;99.90
18777;DHT22;9517;51.174;4.160;2022-09-20T08:22:11;13.90;99.90
18777;DHT22;9517;51.174;4.160;2022-09-20T08:24:39;14.10;99.90
18777;DHT22;9517;51.174;4.160;2022-09-20T08:27:07;14.40;99.90
18777;DHT22;9517;51.174;4.160;2022-09-20T08:29:36;14.60;99.90
18777;DHT22;9517;51.174;4.160;2022-09-20T08:32:05;14.90;99.90
18777;DHT22;9517;51.174;4.160;2022-09-20T08:34:32;15.40;99.90
18777;DHT22;9517;51.174;4.160;2022-09-20T08:36:59;15.90;99.90
18777;DHT22;9517;51.174;4.160;2022-09-20T08:39:26;16.00;99.90
18777;DHT22;9517;51.174;4.160;2022-09-20T08:41:55;16.20;99.90
18777;DHT22;9517;51.174;4.160;2022-09-20T08:44:27;16.20;99.90
18777;DHT22;9517;51.174;4.160;2022-09-20T08:47:04;16.30;99.90
18777;DHT22;9517;51.174;4.160;2022-09-20T08:49:34;16.60;99.90
18777;DHT22;9517;51.174;4.160;2022-09-20T08:52:02;16.90;99.90
18777;DHT22;9517;51.174;4.160;2022-09-20T08:54:31;16.90;99.90
18777;DHT22;9517;51.174;4.160;2022-09-20T08:57:02;16.70;99.90
18777;DHT22;9517;51.174;4.160;2022-09-20T08:59:32;16.50;99.90
18777;DHT22;9517;51.174;4.160;2022-09-20T09:02:01;16.40;99.90
18777;DHT22;9517;51.174;4.160;2022-09-20T09:04:34;16.30;99.90
18777;DHT22;9517;51.174;4.160;2022-09-20T09:07:02;16.20;99.90
18777;DHT22;9517;51.174;4.160;2022-09-20T09:09:33;16.30;99.90
18777;DHT22;9517;51.174;4.160;2022-09-20T09:12:03;16.40;99.90
18777;DHT22;9517;51.174;4.160;2022-09-20T09:14:32;16.50;99.90
18777;DHT22;9517;51.174;4.160;2022-09-20T09:17:18;16.50;99.90
18777;DHT22;9517;51.174;4.160;2022-09-20T09:19:48;16.40;99.90
18777;DHT22;9517;51.174;4.160;2022-09-20T09:22:24;16.40;99.90
18777;DHT22;9517;51.174;4.160;2022-09-20T09:25:20;16.40;99.90
18777;DHT22;9517;51.174;4.160;2022-09-20T09:27:51;16.40;99.90
18777;DHT22;9517;51.174;4.160;2022-09-20T09:30:21;16.50;99.90
18777;DHT22;9517;51.174;4.160;2022-09-20T09:32:55;16.50;99.90
18777;DHT22;9517;51.174;4.160;2022-09-20T09:35:40;16.30;99.90
18777;DHT22;9517;51.174;4.160;2022-09-20T09:38:16;16.50;99.90
18777;DHT22;9517;51.174;4.160;2022-09-20T09:40:49;16.60;99.90
18777;DHT22;9517;51.174;4.160;2022-09-20T09:43:20;16.50;99.90
18777;DHT22;9517;51.174;4.160;2022-09-20T09:45:52;16.40;99.90
18777;DHT22;9517;51.174;4.160;2022-09-20T09:48:24;16.50;99.90
18777;DHT22;9517;51.174;4.160;2022-09-20T09:51:09;16.40;99.90
18777;DHT22;9517;51.174;4.160;2022-09-20T09:53:38;16.20;99.90
18777;DHT22;9517;51.174;4.160;2022-09-20T09:56:24;16.10;99.90
18777;DHT22;9517;51.174;4.160;2022-09-20T09:59:12;16.20;99.90
18777;DHT22;9517;51.174;4.160;2022-09-20T10:01:47;16.00;99.90
18777;DHT22;9517;51.174;4.160;2022-09-20T10:04:26;16.10;99.90
18777;DHT22;9517;51.174;4.160;2022-09-20T10:07:01;16.40;99.90
18777;DHT22;9517;51.174;4.160;2022-09-20T10:09:50;16.50;99.90
18777;DHT22;9517;51.174;4.160;2022-09-20T10:12:35;16.60;99.90
18777;DHT22;9517;51.174;4.160;2022-09-20T10:15:23;16.50;99.90
18777;DHT22;9517;51.174;4.160;2022-09-20T10:18:02;16.70;99.90
18777;DHT22;9517;51.174;4.160;2022-09-20T10:20:51;16.90;99.90
18777;DHT22;9517;51.174;4.160;2022-09-20T10:23:39;17.10;99.90
18777;DHT22;9517;51.174;4.160;2022-09-20T10:26:18;17.30;99.90
18777;DHT22;9517;51.174;4.160;2022-09-20T10:28:56;17.50;99.90
18777;DHT22;9517;51.174;4.160;2022-09-20T10:31:37;17.80;99.90
18777;DHT22;9517;51.174;4.160;2022-09-20T10:37:01;18.40;99.90
18777;DHT22;9517;51.174;4.160;2022-09-20T10:39:32;18.90;99.90
18777;DHT22;9517;51.174;4.160;2022-09-20T10:42:07;19.60;99.90
18777;DHT22;9517;51.174;4.160;2022-09-20T10:45:09;20.20;99.90
18777;DHT22;9517;51.174;4.160;2022-09-20T10:47:46;20.50;99.90
18777;DHT22;9517;51.174;4.160;2022-09-20T10:50:23;20.70;99.90
18777;DHT22;9517;51.174;4.160;2022-09-20T10:56:06;21.20;99.90
18777;DHT22;9517;51.174;4.160;2022-09-20T11:01:30;22.10;99.90
18777;DHT22;9517;51.174;4.160;2022-09-20T11:07:08;22.00;99.90
18777;DHT22;9517;51.174;4.160;2022-09-20T11:09:38;22.40;99.90
18777;DHT22;9517;51.174;4.160;2022-09-20T11:12:12;22.50;99.90
18777;DHT22;9517;51.174;4.160;2022-09-20T11:14:44;22.20;99.90
18777;DHT22;9517;51.174;4.160;2022-09-20T11:17:17;22.20;99.90
18777;DHT22;9517;51.174;4.160;2022-09-20T11:19:52;21.80;99.90
18777;DHT22;9517;51.174;4.160;2022-09-20T11:22:24;21.10;99.90
18777;DHT22;9517;51.174;4.160;2022-09-20T11:24:57;20.50;99.90
18777;DHT22;9517;51.174;4.160;2022-09-20T11:27:33;19.80;99.90
18777;DHT22;9517;51.174;4.160;2022-09-20T11:30:05;20.20;99.90
18777;DHT22;9517;51.174;4.160;2022-09-20T11:32:36;19.90;99.90
18777;DHT22;9517;51.174;4.160;2022-09-20T11:35:22;20.00;99.90
18777;DHT22;9517;51.174;4.160;2022-09-20T11:38:02;19.60;99.90
18777;DHT22;9517;51.174;4.160;2022-09-20T11:40:33;19.50;99.90
18777;DHT22;9517;51.174;4.160;2022-09-20T11:43:04;19.20;99.90
18777;DHT22;9517;51.174;4.160;2022-09-20T11:45:32;19.00;99.90
18777;DHT22;9517;51.174;4.160;2022-09-20T11:48:03;18.80;99.90
18777;DHT22;9517;51.174;4.160;2022-09-20T11:53:46;18.40;99.90
18777;DHT22;9517;51.174;4.160;2022-09-20T11:56:18;18.10;99.90
18777;DHT22;9517;51.174;4.160;2022-09-20T11:58:49;17.70;99.90
18777;DHT22;9517;51.174;4.160;2022-09-20T12:01:25;17.70;99.90
18777;DHT22;9517;51.174;4.160;2022-09-20T12:03:54;17.60;99.90
18777;DHT22;9517;51.174;4.160;2022-09-20T12:06:27;16.90;99.90
18777;DHT22;9517;51.174;4.160;2022-09-20T12:08:59;16.40;99.90
18777;DHT22;9517;51.174;4.160;2022-09-20T12:11:28;16.10;99.90
18777;DHT22;9517;51.174;4.160;2022-09-20T12:14:02;15.90;99.90
18777;DHT22;9517;51.174;4.160;2022-09-20T12:16:39;16.10;99.90
18777;DHT22;9517;51.174;4.160;2022-09-20T12:19:09;16.40;99.90
18777;DHT22;9517;51.174;4.160;2022-09-20T12:22:15;16.70;99.90
18777;DHT22;9517;51.174;4.160;2022-09-20T12:27:57;17.30;99.90
18777;DHT22;9517;51.174;4.160;2022-09-20T12:30:25;17.40;99.90
18777;DHT22;9517;51.174;4.160;2022-09-20T12:32:56;17.50;99.90
18777;DHT22;9517;51.174;4.160;2022-09-20T12:35:57;17.40;99.90
18777;DHT22;9517;51.174;4.160;2022-09-20T12:38:50;17.40;99.90
18777;DHT22;9517;51.174;4.160;2022-09-20T12:41:24;17.40;99.90
18777;DHT22;9517;51.174;4.160;2022-09-20T12:44:03;17.60;99.90
18777;DHT22;9517;51.174;4.160;2022-09-20T12:46:50;17.80;99.90
18777;DHT22;9517;51.174;4.160;2022-09-20T12:49:38;17.70;99.90
18777;DHT22;9517;51.174;4.160;2022-09-20T12:52:34;17.60;99.90
18777;DHT22;9517;51.174;4.160;2022-09-20T12:55:35;17.60;99.90
18777;DHT22;9517;51.174;4.160;2022-09-20T12:58:16;17.70;99.90
18777;DHT22;9517;51.174;4.160;2022-09-20T13:00:49;17.50;99.90
18777;DHT22;9517;51.174;4.160;2022-09-20T13:03:29;17.30;99.90
18777;DHT22;9517;51.174;4.160;2022-09-20T13:06:23;17.40;99.90
18777;DHT22;9517;51.174;4.160;2022-09-20T13:08:55;17.80;99.90
18777;DHT22;9517;51.174;4.160;2022-09-20T13:11:27;18.10;99.90
18777;DHT22;9517;51.174;4.160;2022-09-20T13:13:56;18.20;99.90
18777;DHT22;9517;51.174;4.160;2022-09-20T13:16:29;18.30;99.90
18777;DHT22;9517;51.174;4.160;2022-09-20T13:19:02;18.40;99.90
18777;DHT22;9517;51.174;4.160;2022-09-20T13:21:31;18.50;99.90
18777;DHT22;9517;51.174;4.160;2022-09-20T13:23:59;18.60;99.90
18777;DHT22;9517;51.174;4.160;2022-09-20T13:26:32;18.30;99.90
18777;DHT22;9517;51.174;4.160;2022-09-20T13:29:01;18.00;99.90
18777;DHT22;9517;51.174;4.160;2022-09-20T13:31:32;17.80;99.90
18777;DHT22;9517;51.174;4.160;2022-09-20T13:34:22;17.70;99.90
18777;DHT22;9517;51.174;4.160;2022-09-20T13:36:53;17.80;99.90
18777;DHT22;9517;51.174;4.160;2022-09-20T13:39:32;18.10;99.90
18777;DHT22;9517;51.174;4.160;2022-09-20T13:42:06;18.30;99.90
18777;DHT22;9517;51.174;4.160;2022-09-20T13:44:37;18.00;99.90
18777;DHT22;9517;51.174;4.160;2022-09-20T13:47:22;18.30;99.90
18777;DHT22;9517;51.174;4.160;2022-09-20T13:49:50;18.00;99.90
18777;DHT22;9517;51.174;4.160;2022-09-20T13:52:23;17.90;99.90
18777;DHT22;9517;51.174;4.160;2022-09-20T13:54:50;17.80;99.90
18777;DHT22;9517;51.174;4.160;2022-09-20T13:57:24;17.80;99.90
18777;DHT22;9517;51.174;4.160;2022-09-20T13:59:52;17.40;99.90
18777;DHT22;9517;51.174;4.160;2022-09-20T14:02:25;17.10;99.90
18777;DHT22;9517;51.174;4.160;2022-09-20T14:04:58;16.90;99.90
18777;DHT22;9517;51.174;4.160;2022-09-20T14:07:26;16.80;99.90
18777;DHT22;9517;51.174;4.160;2022-09-20T14:09:58;16.80;99.90
18777;DHT22;9517;51.174;4.160;2022-09-20T14:12:26;16.70;99.90
18777;DHT22;9517;51.174;4.160;2022-09-20T14:14:54;16.50;99.90
18777;DHT22;9517;51.174;4.160;2022-09-20T14:17:22;16.50;99.90
18777;DHT22;9517;51.174;4.160;2022-09-20T14:19:51;16.50;99.90
18777;DHT22;9517;51.174;4.160;2022-09-20T14:22:24;16.60;99.90
18777;DHT22;9517;51.174;4.160;2022-09-20T14:24:59;16.70;99.90
18777;DHT22;9517;51.174;4.160;2022-09-20T14:27:27;16.70;99.90
18777;DHT22;9517;51.174;4.160;2022-09-20T14:29:56;16.70;99.90
18777;DHT22;9517;51.174;4.160;2022-09-20T14:32:40;16.40;99.90
18777;DHT22;9517;51.174;4.160;2022-09-20T14:35:15;16.40;99.90
18777;DHT22;9517;51.174;4.160;2022-09-20T14:37:47;16.40;99.90
18777;DHT22;9517;51.174;4.160;2022-09-20T14:40:39;16.40;99.90
18777;DHT22;9517;51.174;4.160;2022-09-20T14:43:23;16.70;99.90
18777;DHT22;9517;51.174;4.160;2022-09-20T14:45:53;16.90;99.90
18777;DHT22;9517;51.174;4.160;2022-09-20T14:48:33;17.30;99.90
18777;DHT22;9517;51.174;4.160;2022-09-20T14:51:24;17.80;99.90
18777;DHT22;9517;51.174;4.160;2022-09-20T14:54:20;18.20;99.90
18777;DHT22;9517;51.174;4.160;2022-09-20T14:56:48;18.20;99.90
18777;DHT22;9517;51.174;4.160;2022-09-20T14:59:23;18.40;99.90
18777;DHT22;9517;51.174;4.160;2022-09-20T15:01:58;18.40;99.90
18777;DHT22;9517;51.174;4.160;2022-09-20T15:04:26;18.60;99.90
18777;DHT22;9517;51.174;4.160;2022-09-20T15:06:55;18.70;99.90
18777;DHT22;9517;51.174;4.160;2022-09-20T15:09:24;18.80;99.90
18777;DHT22;9517;51.174;4.160;2022-09-20T15:12:03;19.20;99.90
18777;DHT22;9517;51.174;4.160;2022-09-20T15:14:30;20.30;99.90
18777;DHT22;9517;51.174;4.160;2022-09-20T15:16:58;20.60;99.90
18777;DHT22;9517;51.174;4.160;2022-09-20T15:19:25;20.90;99.90
18777;DHT22;9517;51.174;4.160;2022-09-20T15:21:53;20.90;99.90
18777;DHT22;9517;51.174;4.160;2022-09-20T15:24:24;20.70;99.90
18777;DHT22;9517;51.174;4.160;2022-09-20T15:26:52;20.60;99.90
18777;DHT22;9517;51.174;4.160;2022-09-20T15:29:20;20.60;99.90
18777;DHT22;9517;51.174;4.160;2022-09-20T15:31:48;20.70;99.90
18777;DHT22;9517;51.174;4.160;2022-09-20T15:34:15;20.80;99.90
18777;DHT22;9517;51.174;4.160;2022-09-20T15:36:42;20.60;99.90
18777;DHT22;9517;51.174;4.160;2022-09-20T15:39:09;20.90;99.90
18777;DHT22;9517;51.174;4.160;2022-09-20T15:41:38;21.50;99.90
18777;DHT22;9517;51.174;4.160;2022-09-20T15:44:06;21.30;99.90
18777;DHT22;9517;51.174;4.160;2022-09-20T15:46:33;21.30;99.90
18777;DHT22;9517;51.174;4.160;2022-09-20T15:49:01;21.40;99.90
18777;DHT22;9517;51.174;4.160;2022-09-20T15:51:31;21.20;99.90
18777;DHT22;9517;51.174;4.160;2022-09-20T15:54:00;21.10;99.90
18777;DHT22;9517;51.174;4.160;2022-09-20T15:56:32;21.10;99.90
18777;DHT22;9517;51.174;4.160;2022-09-20T15:59:03;20.70;99.90
18777;DHT22;9517;51.174;4.160;2022-09-20T16:01:32;20.80;99.90
18777;DHT22;9517;51.174;4.160;2022-09-20T16:04:04;20.80;99.90
18777;DHT22;9517;51.174;4.160;2022-09-20T16:06:33;20.40;99.90
18777;DHT22;9517;51.174;4.160;2022-09-20T16:09:01;20.10;99.90
18777;DHT22;9517;51.174;4.160;2022-09-20T16:11:28;20.00;99.90
18777;DHT22;9517;51.174;4.160;2022-09-20T16:13:58;19.60;99.90
18777;DHT22;9517;51.174;4.160;2022-09-20T16:16:29;19.70;99.90
18777;DHT22;9517;51.174;4.160;2022-09-20T16:19:03;19.50;99.90
18777;DHT22;9517;51.174;4.160;2022-09-20T16:21:49;19.20;99.90
18777;DHT22;9517;51.174;4.160;2022-09-20T16:24:25;18.90;99.90
18777;DHT22;9517;51.174;4.160;2022-09-20T16:26:52;18.70;99.90
18777;DHT22;9517;51.174;4.160;2022-09-20T16:29:28;18.50;99.90
18777;DHT22;9517;51.174;4.160;2022-09-20T16:31:57;18.30;99.90
18777;DHT22;9517;51.174;4.160;2022-09-20T16:34:26;18.10;99.90
18777;DHT22;9517;51.174;4.160;2022-09-20T16:36:55;18.10;99.90
18777;DHT22;9517;51.174;4.160;2022-09-20T16:39:29;17.90;99.90
18777;DHT22;9517;51.174;4.160;2022-09-20T16:41:57;17.80;99.90
18777;DHT22;9517;51.174;4.160;2022-09-20T16:44:28;17.70;99.90
18777;DHT22;9517;51.174;4.160;2022-09-20T16:46:58;17.60;99.90
18777;DHT22;9517;51.174;4.160;2022-09-20T16:49:28;17.50;99.90
18777;DHT22;9517;51.174;4.160;2022-09-20T16:51:55;17.40;99.90
18777;DHT22;9517;51.174;4.160;2022-09-20T16:54:25;17.20;99.90
18777;DHT22;9517;51.174;4.160;2022-09-20T16:56:52;17.10;99.90
18777;DHT22;9517;51.174;4.160;2022-09-20T16:59:20;16.90;99.90
18777;DHT22;9517;51.174;4.160;2022-09-20T17:01:49;16.90;99.90
18777;DHT22;9517;51.174;4.160;2022-09-20T17:04:21;16.70;99.90
18777;DHT22;9517;51.174;4.160;2022-09-20T17:06:50;16.70;99.90
18777;DHT22;9517;51.174;4.160;2022-09-20T17:09:20;16.50;99.90
18777;DHT22;9517;51.174;4.160;2022-09-20T17:11:53;16.60;99.90
18777;DHT22;9517;51.174;4.160;2022-09-20T17:14:28;16.50;99.90
18777;DHT22;9517;51.174;4.160;2022-09-20T17:16:58;16.40;99.90
18777;DHT22;9517;51.174;4.160;2022-09-20T17:19:27;16.30;99.90
18777;DHT22;9517;51.174;4.160;2022-09-20T17:21:54;16.10;99.90
18777;DHT22;9517;51.174;4.160;2022-09-20T17:24:26;16.00;99.90
18777;DHT22;9517;51.174;4.160;2022-09-20T17:26:54;15.90;99.90
18777;DHT22;9517;51.174;4.160;2022-09-20T17:29:28;15.80;99.90
18777;DHT22;9517;51.174;4.160;2022-09-20T17:31:55;15.70;99.90
18777;DHT22;9517;51.174;4.160;2022-09-20T17:34:28;15.60;99.90